Time;durP1;ratioP1;P1;durP2;ratioP2;P2;SDS_P1;SDS_P2;PMS_P1;PMS_P2;Temp;Humidity;BMP_temperature;BMP_pressure;BME280_temperature;BME280_humidity;BME280_pressure;Samples;Min_cycle;Max_cycle;Signal;HPM_P1;HPM_P2
2024/02/02 00:00:05;;;;;;;1.00;1.00;;;;;;;;;;5008926;28;20181;-90
2024/02/02 00:03:14;;;;;;;1.73;1.23;;;;;;;;;;5008247;28;20209;-89
2024/02/02 00:06:20;;;;;;;5.23;1.97;;;;;;;;;;5006865;28;20184;-90
2024/02/02 00:09:25;;;;;;;3.03;1.80;;;;;;;;;;5006315;28;20177;-90
2024/02/02 00:12:31;;;;;;;2.00;1.80;;;;;;;;;;4986301;28;20190;-88
2024/02/02 00:15:37;;;;;;;1.20;1.13;;;;;;;;;;4986026;28;20205;-90
2024/02/02 00:18:46;;;;;;;6.03;2.03;;;;;;;;;;4988179;28;20198;-89
2024/02/02 00:21:51;;;;;;;1.27;1.17;;;;;;;;;;4988431;28;20214;-90
2024/02/02 00:24:56;;;;;;;3.13;2.03;;;;;;;;;;4999644;28;20226;-91
2024/02/02 00:28:02;;;;;;;1.63;1.33;;;;;;;;;;4995834;28;20197;-89
2024/02/02 00:31:08;;;;;;;1.20;1.10;;;;;;;;;;5009640;28;20185;-90
2024/02/02 00:34:15;;;;;;;7.32;1.67;;;;;;;;;;5006458;28;20290;-90
2024/02/02 00:37:20;;;;;;;2.40;0.98;;;;;;;;;;5006159;28;20197;-89
2024/02/02 00:40:25;;;;;;;2.00;1.60;;;;;;;;;;4985549;28;20205;-90
2024/02/02 00:43:31;;;;;;;1.77;1.67;;;;;;;;;;4985368;28;20217;-89
2024/02/02 00:46:36;;;;;;;2.93;1.83;;;;;;;;;;4985116;28;20201;-89
2024/02/02 00:49:42;;;;;;;2.13;1.57;;;;;;;;;;4984733;28;20317;-89
2024/02/02 00:52:47;;;;;;;1.60;1.43;;;;;;;;;;4986496;28;20271;-90
2024/02/02 00:55:52;;;;;;;1.33;0.90;;;;;;;;;;4984878;28;20551;-90
2024/02/02 00:58:58;;;;;;;2.70;1.27;;;;;;;;;;4986728;28;20186;-90
2024/02/02 01:02:03;;;;;;;1.37;1.20;;;;;;;;;;4989577;28;20182;-89
2024/02/02 01:05:10;;;;;;;2.20;1.27;;;;;;;;;;4991894;28;20523;-90
2024/02/02 01:08:16;;;;;;;2.57;1.27;;;;;;;;;;5010245;28;20197;-90
2024/02/02 01:11:25;;;;;;;3.33;1.90;;;;;;;;;;5010250;28;20273;-89
2024/02/02 01:14:30;;;;;;;3.03;2.07;;;;;;;;;;5009548;28;20189;-89
2024/02/02 01:17:36;;;;;;;1.13;1.03;;;;;;;;;;5009341;28;20201;-89
2024/02/02 01:20:44;;;;;;;2.83;1.53;;;;;;;;;;5011381;28;20185;-89
2024/02/02 01:23:49;;;;;;;2.07;1.97;;;;;;;;;;5010266;28;20553;-90
2024/02/02 01:26:56;;;;;;;7.20;1.80;;;;;;;;;;5010735;28;20337;-90
2024/02/02 01:30:01;;;;;;;1.37;1.13;;;;;;;;;;5009661;28;20258;-90
2024/02/02 01:33:06;;;;;;;6.03;2.63;;;;;;;;;;5006930;28;20221;-90
2024/02/02 01:36:14;;;;;;;2.17;1.50;;;;;;;;;;5009639;28;20216;-90
2024/02/02 01:39:21;;;;;;;2.20;1.63;;;;;;;;;;5010088;28;20202;-91
2024/02/02 01:42:26;;;;;;;0.77;0.77;;;;;;;;;;5009303;28;20194;-90
2024/02/02 01:45:31;;;;;;;1.37;1.10;;;;;;;;;;5008110;28;20306;-90
2024/02/02 01:48:37;;;;;;;1.67;1.53;;;;;;;;;;5004400;28;20193;-90
2024/02/02 01:51:43;;;;;;;0.87;0.87;;;;;;;;;;5010664;28;20212;-89
2024/02/02 01:54:49;;;;;;;13.33;1.70;;;;;;;;;;5011004;28;20204;-88
2024/02/02 01:57:55;;;;;;;1.00;1.00;;;;;;;;;;5008380;28;20205;-91
2024/02/02 02:01:01;;;;;;;1.47;0.97;;;;;;;;;;5009161;28;20248;-90
2024/02/02 02:04:06;;;;;;;2.40;2.20;;;;;;;;;;5009323;28;20221;-89
2024/02/02 02:07:13;;;;;;;1.93;1.13;;;;;;;;;;5007142;28;20197;-89
2024/02/02 02:10:19;;;;;;;1.37;1.27;;;;;;;;;;5006918;28;20209;-90
2024/02/02 02:13:26;;;;;;;1.23;1.00;;;;;;;;;;5009447;28;20201;-90
2024/02/02 02:16:31;;;;;;;2.40;2.03;;;;;;;;;;5008308;28;20290;-89
2024/02/02 02:19:37;;;;;;;0.93;0.93;;;;;;;;;;5009491;28;20193;-91
2024/02/02 02:22:44;;;;;;;1.70;1.43;;;;;;;;;;5008671;28;20205;-90
2024/02/02 02:25:50;;;;;;;1.23;1.13;;;;;;;;;;5007574;28;20679;-90
2024/02/02 02:28:55;;;;;;;2.23;1.50;;;;;;;;;;5010175;28;20234;-92
2024/02/02 02:32:00;;;;;;;3.70;2.37;;;;;;;;;;5008473;28;20225;-89
2024/02/02 02:35:06;;;;;;;7.47;1.50;;;;;;;;;;5007601;28;20205;-90
2024/02/02 02:38:13;;;;;;;1.67;1.17;;;;;;;;;;5007770;28;20181;-91
2024/02/02 02:41:19;;;;;;;3.60;1.83;;;;;;;;;;5007309;28;20236;-88
2024/02/02 02:44:25;;;;;;;3.87;1.37;;;;;;;;;;4989079;28;20197;-91
2024/02/02 02:47:30;;;;;;;2.83;0.97;;;;;;;;;;4987758;28;20209;-91
2024/02/02 02:50:36;;;;;;;3.77;1.83;;;;;;;;;;4999650;28;20209;-91
2024/02/02 02:57:03;;;;;;;2.27;1.57;;;;;;;;;;5008164;28;20247;-90
2024/02/02 03:00:10;;;;;;;3.27;1.30;;;;;;;;;;5007669;28;20300;-90
2024/02/02 03:03:15;;;;;;;2.60;1.87;;;;;;;;;;5006506;28;20201;-90
2024/02/02 03:06:20;;;;;;;31.90;14.60;;;;;;;;;;5009841;28;20205;-90
2024/02/02 03:09:27;;;;;;;34.90;14.80;;;;;;;;;;5006354;28;20220;-88
2024/02/02 03:12:32;;;;;;;32.67;13.97;;;;;;;;;;5007934;28;20205;-91
2024/02/02 03:15:39;;;;;;;32.37;14.10;;;;;;;;;;5008251;28;20209;-90
2024/02/02 03:18:45;;;;;;;38.43;14.47;;;;;;;;;;4994785;28;20357;-88
2024/02/02 03:21:50;;;;;;;35.90;14.17;;;;;;;;;;4987502;28;20237;-90
2024/02/02 03:24:57;;;;;;;35.17;14.60;;;;;;;;;;4986483;28;20221;-89
2024/02/02 03:28:03;;;;;;;34.17;15.50;;;;;;;;;;4995298;28;20197;-92
2024/02/02 03:31:08;;;;;;;33.93;15.03;;;;;;;;;;5007236;28;20204;-89
2024/02/02 03:34:13;;;;;;;32.10;14.80;;;;;;;;;;4994321;28;20201;-89
2024/02/02 03:37:19;;;;;;;30.37;14.10;;;;;;;;;;4997745;28;20205;-89
2024/02/02 03:40:26;;;;;;;40.63;16.17;;;;;;;;;;4989613;28;20205;-91
2024/02/02 03:43:32;;;;;;;46.80;17.90;;;;;;;;;;5006906;28;20197;-91
2024/02/02 03:46:37;;;;;;;44.90;16.77;;;;;;;;;;5007441;28;20229;-89
2024/02/02 03:49:42;;;;;;;45.17;15.93;;;;;;;;;;5005906;28;20212;-90
2024/02/02 03:52:47;;;;;;;52.40;18.50;;;;;;;;;;5005864;28;20169;-90
2024/02/02 03:55:54;;;;;;;32.83;14.03;;;;;;;;;;5005253;28;20201;-90
2024/02/02 03:58:59;;;;;;;27.40;13.87;;;;;;;;;;4990592;28;20290;-88
2024/02/02 04:02:06;;;;;;;34.97;14.93;;;;;;;;;;4987973;28;20190;-91
2024/02/02 04:05:11;;;;;;;41.33;15.37;;;;;;;;;;4985632;28;20372;-91
2024/02/02 04:08:16;;;;;;;39.47;14.60;;;;;;;;;;5005366;28;20236;-91
2024/02/02 04:11:24;;;;;;;52.77;17.97;;;;;;;;;;5006812;28;20201;-91
2024/02/02 04:14:29;;;;;;;60.23;19.27;;;;;;;;;;5005517;28;20197;-90
2024/02/02 04:17:34;;;;;;;43.23;16.90;;;;;;;;;;5001544;28;20212;-91
2024/02/02 04:20:40;;;;;;;29.83;13.67;;;;;;;;;;5005090;28;20252;-90
2024/02/02 04:23:45;;;;;;;31.03;13.90;;;;;;;;;;5006150;28;20193;-91
2024/02/02 04:26:51;;;;;;;31.43;13.20;;;;;;;;;;5008420;28;20353;-91
2024/02/02 04:29:57;;;;;;;36.77;14.93;;;;;;;;;;5006037;28;20212;-91
2024/02/02 04:33:02;;;;;;;43.70;15.07;;;;;;;;;;5007486;28;20172;-91
2024/02/02 04:36:09;;;;;;;44.70;16.63;;;;;;;;;;5006015;28;20562;-91
2024/02/02 04:39:14;;;;;;;34.13;15.27;;;;;;;;;;5006792;28;20204;-90
2024/02/02 04:42:21;;;;;;;33.83;16.03;;;;;;;;;;5006280;28;20197;-90
2024/02/02 04:45:27;;;;;;;35.67;14.83;;;;;;;;;;5008108;28;20240;-92
2024/02/02 04:48:32;;;;;;;36.83;16.00;;;;;;;;;;5009098;28;20254;-90
2024/02/02 04:51:38;;;;;;;35.23;15.43;;;;;;;;;;5008957;28;20263;-91
2024/02/02 04:54:43;;;;;;;39.67;15.47;;;;;;;;;;4991000;28;20192;-90
2024/02/02 04:57:50;;;;;;;38.63;16.27;;;;;;;;;;4986003;28;20295;-91
2024/02/02 05:00:55;;;;;;;39.20;16.10;;;;;;;;;;4984810;28;20194;-91
2024/02/02 05:04:01;;;;;;;37.27;15.70;;;;;;;;;;4999954;28;20224;-88
2024/02/02 05:07:06;;;;;;;37.53;14.83;;;;;;;;;;5005254;28;20248;-91
2024/02/02 05:10:12;;;;;;;29.53;14.17;;;;;;;;;;5004901;28;20221;-89
2024/02/02 05:13:18;;;;;;;36.50;14.33;;;;;;;;;;5005277;28;20256;-90
2024/02/02 05:16:23;;;;;;;34.97;14.10;;;;;;;;;;5007122;28;20205;-91
2024/02/02 05:19:30;;;;;;;35.63;15.57;;;;;;;;;;5002804;28;20306;-91
2024/02/02 05:22:35;;;;;;;39.70;14.70;;;;;;;;;;5003558;28;20185;-91
2024/02/02 05:25:40;;;;;;;51.13;18.37;;;;;;;;;;5002552;28;20267;-90
2024/02/02 05:28:52;;;;;;;31.57;15.83;;;;;;;;;;5003312;28;20209;-90
2024/02/02 05:31:57;;;;;;;37.87;16.53;;;;;;;;;;5004856;28;20212;-91
2024/02/02 05:35:03;;;;;;;38.63;15.60;;;;;;;;;;5006018;28;20194;-91
2024/02/02 05:38:10;;;;;;;34.90;15.37;;;;;;;;;;5007538;28;20181;-89
2024/02/02 05:41:16;;;;;;;37.43;15.97;;;;;;;;;;5006005;28;20280;-90
2024/02/02 05:44:23;;;;;;;35.33;15.77;;;;;;;;;;5009915;28;20260;-90
2024/02/02 05:47:28;;;;;;;35.37;15.40;;;;;;;;;;4998584;28;20220;-90
2024/02/02 05:50:34;;;;;;;35.03;16.23;;;;;;;;;;5010256;28;20227;-91
2024/02/02 05:53:39;;;;;;;40.07;16.77;;;;;;;;;;5010196;28;20184;-90
2024/02/02 05:56:45;;;;;;;41.07;17.30;;;;;;;;;;5011331;28;20797;-89
2024/02/02 05:59:52;;;;;;;35.93;16.07;;;;;;;;;;5010165;28;20665;-90
2024/02/02 06:02:57;;;;;;;37.63;15.83;;;;;;;;;;5009284;28;20224;-89
2024/02/02 06:06:03;;;;;;;37.10;16.87;;;;;;;;;;5009939;28;20217;-91
2024/02/02 06:09:09;;;;;;;37.87;17.00;;;;;;;;;;5001670;28;20224;-91
2024/02/02 06:12:17;;;;;;;36.70;15.80;;;;;;;;;;4990361;28;20190;-91
2024/02/02 06:15:24;;;;;;;37.07;15.97;;;;;;;;;;5004016;28;20201;-90
2024/02/02 06:18:31;;;;;;;40.60;17.77;;;;;;;;;;4992553;28;20229;-88
2024/02/02 06:21:37;;;;;;;37.87;17.00;;;;;;;;;;4995272;28;20237;-90
2024/02/02 06:24:43;;;;;;;36.07;15.50;;;;;;;;;;5009336;28;20209;-89
2024/02/02 06:27:48;;;;;;;37.10;16.33;;;;;;;;;;5009925;28;20221;-89
2024/02/02 06:31:08;;;;;;;40.83;16.73;;;;;;;;;;5010058;28;20273;-91
2024/02/02 06:34:14;;;;;;;36.43;16.20;;;;;;;;;;5008650;28;20201;-90
2024/02/02 06:37:23;;;;;;;40.70;15.30;;;;;;;;;;5007757;28;20341;-90
2024/02/02 06:43:55;;;;;;;38.00;17.27;;;;;;;;;;5011228;28;20213;-89
2024/02/02 06:47:02;;;;;;;36.67;14.33;;;;;;;;;;4989004;28;20337;-90
2024/02/02 06:50:08;;;;;;;38.33;16.83;;;;;;;;;;4994268;28;20216;-89
2024/02/02 06:53:15;;;;;;;43.00;16.40;;;;;;;;;;5007038;28;20193;-88
2024/02/02 06:56:36;;;;;;;34.23;15.63;;;;;;;;;;4993100;28;20340;-90
2024/02/02 06:59:43;;;;;;;33.63;15.00;;;;;;;;;;4997203;28;20228;-90
2024/02/02 07:02:51;;;;;;;34.23;14.77;;;;;;;;;;5005205;28;20205;-91
2024/02/02 07:05:56;;;;;;;38.80;16.47;;;;;;;;;;5010284;28;20224;-90
2024/02/02 07:09:04;;;;;;;40.10;15.93;;;;;;;;;;5006392;28;20246;-91
2024/02/02 07:12:12;;;;;;;44.17;17.07;;;;;;;;;;5001008;28;20205;-90
2024/02/02 07:15:19;;;;;;;36.97;16.23;;;;;;;;;;4987887;28;20194;-92
2024/02/02 07:18:37;;;;;;;37.47;15.80;;;;;;;;;;4989331;28;20193;-90
2024/02/02 07:21:43;;;;;;;39.10;15.60;;;;;;;;;;4987416;28;20557;-91
2024/02/02 07:24:48;;;;;;;35.47;15.90;;;;;;;;;;4987756;28;20189;-91
2024/02/02 07:27:55;;;;;;;42.07;17.00;;;;;;;;;;4989067;28;20293;-90
2024/02/02 07:31:01;;;;;;;34.63;15.27;;;;;;;;;;4990047;28;20185;-90
2024/02/02 07:34:21;;;;;;;41.93;16.10;;;;;;;;;;4989043;28;20213;-89
2024/02/02 07:37:46;;;;;;;41.97;16.93;;;;;;;;;;5004451;28;20213;-89
2024/02/02 07:41:04;;;;;;;32.93;14.80;;;;;;;;;;5009088;28;20188;-90
2024/02/02 07:44:09;;;;;;;32.80;14.90;;;;;;;;;;5000036;28;20194;-90
2024/02/02 07:47:15;;;;;;;39.07;16.37;;;;;;;;;;4995478;28;20217;-89
2024/02/02 07:50:22;;;;;;;36.77;15.73;;;;;;;;;;4985368;28;20190;-89
2024/02/02 07:53:27;;;;;;;37.50;16.20;;;;;;;;;;4986326;28;20194;-91
2024/02/02 07:56:32;;;;;;;39.70;17.17;;;;;;;;;;5003416;28;20212;-90
2024/02/02 07:59:37;;;;;;;54.43;22.40;;;;;;;;;;5006788;28;20205;-91
2024/02/02 08:02:43;;;;;;;40.07;17.27;;;;;;;;;;5008605;28;20216;-89
2024/02/02 08:05:51;;;;;;;36.20;15.50;;;;;;;;;;5007259;28;20197;-89
2024/02/02 08:08:57;;;;;;;36.50;14.67;;;;;;;;;;5014059;28;20671;-89
2024/02/02 08:12:02;;;;;;;32.43;14.00;;;;;;;;;;5023232;28;20262;-89
2024/02/02 08:15:08;;;;;;;36.67;14.47;;;;;;;;;;5010486;28;20751;-88
2024/02/02 08:18:14;;;;;;;36.07;14.03;;;;;;;;;;4987752;28;20669;-89
2024/02/02 08:21:21;;;;;;;31.93;14.07;;;;;;;;;;4996054;28;20597;-90
2024/02/02 08:24:26;;;;;;;36.50;15.80;;;;;;;;;;5003699;28;20201;-90
2024/02/02 08:27:31;;;;;;;33.47;14.93;;;;;;;;;;4984347;28;20272;-89
2024/02/02 08:30:37;;;;;;;33.77;14.00;;;;;;;;;;4993219;28;20196;-90
2024/02/02 08:33:43;;;;;;;36.83;14.83;;;;;;;;;;4991846;28;20221;-90
2024/02/02 08:36:50;;;;;;;34.90;15.37;;;;;;;;;;5004437;28;20211;-90
2024/02/02 08:39:56;;;;;;;35.77;14.37;;;;;;;;;;5000250;28;20214;-89
2024/02/02 08:43:03;;;;;;;36.23;14.50;;;;;;;;;;5003370;28;20221;-90
2024/02/02 08:46:10;;;;;;;32.73;13.33;;;;;;;;;;4994356;28;20224;-89
2024/02/02 08:49:21;;;;;;;30.20;13.55;;;;;;;;;;5004113;28;20217;-90
2024/02/02 08:52:32;;;;;;;35.00;13.27;;;;;;;;;;5004350;28;20193;-90
2024/02/02 08:55:47;;;;;;;34.35;12.88;;;;;;;;;;4995425;28;20203;-90
2024/02/02 08:58:53;;;;;;;29.20;14.53;;;;;;;;;;4989925;28;20201;-89
2024/02/02 09:01:58;;;;;;;27.40;12.65;;;;;;;;;;4988776;28;20190;-90
2024/02/02 09:05:08;;;;;;;32.85;13.63;;;;;;;;;;5002013;28;20197;-91
2024/02/02 09:12:06;;;;;;;37.55;13.48;;;;;;;;;;5005117;28;20579;-89
2024/02/02 09:19:00;;;;;;;34.00;12.43;;;;;;;;;;5012910;28;20205;-90
2024/02/02 09:22:09;;;;;;;27.85;11.98;;;;;;;;;;5009336;28;20209;-92
2024/02/02 09:25:26;;;;;;;27.08;11.50;;;;;;;;;;5002864;28;20194;-91
2024/02/02 11:08:31;;;;;;;38.45;13.82;;;;;;;;;;5469136;23;20758;-91
2024/02/02 11:11:37;;;;;;;33.30;14.27;;;;;;;;;;5027451;28;20200;-91
2024/02/02 11:14:47;;;;;;;38.53;13.20;;;;;;;;;;5027079;28;20364;-90
2024/02/02 11:18:01;;;;;;;29.38;13.00;;;;;;;;;;5027223;28;20670;-90
2024/02/02 11:21:14;;;;;;;33.05;12.45;;;;;;;;;;5028364;28;20200;-92
2024/02/02 11:24:25;;;;;;;35.72;12.70;;;;;;;;;;5028030;28;20228;-91
2024/02/02 11:27:36;;;;;;;28.52;12.30;;;;;;;;;;5011531;28;20799;-91
2024/02/02 11:30:48;;;;;;;30.90;13.05;;;;;;;;;;5027057;28;20196;-90
2024/02/02 11:33:59;;;;;;;33.28;11.68;;;;;;;;;;5029309;28;20211;-91
2024/02/02 11:37:08;;;;;;;27.25;11.45;;;;;;;;;;5027077;28;20279;-89
2024/02/02 11:40:20;;;;;;;30.45;11.60;;;;;;;;;;5019005;28;20192;-90
2024/02/02 11:43:27;;;;;;;32.15;11.35;;;;;;;;;;5029445;28;20698;-89
2024/02/02 11:46:36;;;;;;;28.05;11.63;;;;;;;;;;5016626;28;20196;-88
2024/02/02 11:49:44;;;;;;;30.40;11.82;;;;;;;;;;5025383;28;20212;-89
2024/02/02 11:52:53;;;;;;;24.52;10.93;;;;;;;;;;5030511;28;20296;-91
2024/02/02 11:56:06;;;;;;;30.92;11.45;;;;;;;;;;5025848;28;20193;-92
2024/02/02 11:59:24;;;;;;;23.48;10.43;;;;;;;;;;5025829;28;20247;-90
2024/02/02 12:02:35;;;;;;;26.38;11.63;;;;;;;;;;5006840;28;20189;-89
2024/02/02 12:05:47;;;;;;;27.58;12.15;;;;;;;;;;5008663;28;20208;-91
2024/02/02 12:08:59;;;;;;;32.17;11.20;;;;;;;;;;5020687;28;20223;-91
2024/02/02 12:12:11;;;;;;;28.10;11.55;;;;;;;;;;5025677;28;20536;-92
2024/02/02 12:15:19;;;;;;;24.17;10.23;;;;;;;;;;5023101;28;20196;-89
2024/02/02 12:18:24;;;;;;;26.65;11.18;;;;;;;;;;5021441;28;20211;-91
2024/02/02 12:21:29;;;;;;;30.45;11.27;;;;;;;;;;5014260;28;20197;-89
2024/02/02 12:24:34;;;;;;;30.95;11.38;;;;;;;;;;5012188;28;20672;-90
2024/02/02 12:27:42;;;;;;;32.72;11.82;;;;;;;;;;5020541;28;20228;-91
2024/02/02 12:30:47;;;;;;;28.17;11.05;;;;;;;;;;5006884;28;20263;-90
2024/02/02 12:33:52;;;;;;;29.92;10.68;;;;;;;;;;5008617;28;20200;-89
2024/02/02 12:37:01;;;;;;;31.63;11.75;;;;;;;;;;5016572;28;20215;-91
2024/02/02 12:40:07;;;;;;;27.67;10.35;;;;;;;;;;5029430;28;20196;-90
2024/02/02 12:43:14;;;;;;;23.67;9.68;;;;;;;;;;5026225;28;20231;-89
2024/02/02 12:46:21;;;;;;;25.67;9.25;;;;;;;;;;5004635;28;20216;-89
2024/02/02 12:49:27;;;;;;;21.40;8.60;;;;;;;;;;5005230;28;20217;-89
2024/02/02 12:52:32;;;;;;;20.58;8.50;;;;;;;;;;5022074;28;20200;-89
2024/02/02 12:55:38;;;;;;;16.95;7.65;;;;;;;;;;5020760;28;20583;-89
2024/02/02 12:58:46;;;;;;;20.98;7.75;;;;;;;;;;4998000;28;20208;-90
2024/02/02 13:01:54;;;;;;;18.52;8.20;;;;;;;;;;5026559;28;20208;-89
2024/02/02 13:05:00;;;;;;;20.77;8.13;;;;;;;;;;5017694;28;20215;-89
2024/02/02 13:08:08;;;;;;;21.80;8.75;;;;;;;;;;5030928;28;20240;-89
2024/02/02 13:11:20;;;;;;;18.33;8.00;;;;;;;;;;5031104;28;20251;-88
2024/02/02 13:14:32;;;;;;;18.52;8.48;;;;;;;;;;5012210;28;20215;-91
2024/02/02 13:17:38;;;;;;;17.13;7.78;;;;;;;;;;5011396;28;20216;-89
2024/02/02 13:20:45;;;;;;;20.92;8.82;;;;;;;;;;5023838;28;20252;-88
2024/02/02 13:23:55;;;;;;;20.77;8.85;;;;;;;;;;5037383;28;20201;-89
2024/02/02 13:27:04;;;;;;;18.50;8.35;;;;;;;;;;5010921;28;20177;-90
2024/02/02 13:30:26;;;;;;;22.50;8.77;;;;;;;;;;5020040;28;20595;-90
2024/02/02 13:33:32;;;;;;;20.30;9.93;;;;;;;;;;5028300;28;20213;-88
2024/02/02 13:36:43;;;;;;;19.90;8.82;;;;;;;;;;5009469;28;20197;-89
2024/02/02 13:43:13;;;;;;;23.05;9.93;;;;;;;;;;5019276;28;20224;-90
2024/02/02 13:46:20;;;;;;;16.67;8.07;;;;;;;;;;5025994;28;20180;-88
2024/02/02 13:49:28;;;;;;;20.70;8.85;;;;;;;;;;5027250;28;20279;-88
2024/02/02 13:52:35;;;;;;;19.00;9.27;;;;;;;;;;5027831;28;20288;-88
2024/02/02 13:55:40;;;;;;;22.05;9.30;;;;;;;;;;5027903;28;20204;-89
2024/02/02 13:58:46;;;;;;;19.50;8.88;;;;;;;;;;5029126;28;20236;-89
2024/02/02 14:01:53;;;;;;;23.15;10.02;;;;;;;;;;5029639;28;20184;-87
2024/02/02 14:04:59;;;;;;;22.25;9.52;;;;;;;;;;5028264;28;20208;-89
2024/02/02 14:08:04;;;;;;;23.40;10.23;;;;;;;;;;5027233;28;20636;-88
2024/02/02 14:11:10;;;;;;;22.30;10.05;;;;;;;;;;5028712;28;20200;-90
2024/02/02 14:14:16;;;;;;;20.55;9.07;;;;;;;;;;5018659;28;20200;-91
2024/02/02 14:17:23;;;;;;;19.60;9.18;;;;;;;;;;5030189;28;20652;-90
2024/02/02 14:20:29;;;;;;;19.17;9.82;;;;;;;;;;5028645;28;20269;-89
2024/02/02 14:23:35;;;;;;;22.95;9.35;;;;;;;;;;5029004;28;20326;-89
2024/02/02 14:27:01;;;;;;;22.15;9.73;;;;;;;;;;5032312;28;20185;-89
2024/02/02 14:30:08;;;;;;;18.50;8.80;;;;;;;;;;5031180;28;20188;-89
2024/02/02 14:33:19;;;;;;;26.33;10.82;;;;;;;;;;5031304;28;20184;-88
2024/02/02 14:36:24;;;;;;;22.95;9.57;;;;;;;;;;5031039;28;20651;-88
2024/02/02 14:39:33;;;;;;;23.20;9.93;;;;;;;;;;5031766;28;20188;-89
2024/02/02 14:42:41;;;;;;;21.02;9.88;;;;;;;;;;5031294;28;20197;-89
2024/02/02 14:45:59;;;;;;;27.05;10.90;;;;;;;;;;5033681;28;20240;-89
2024/02/02 14:49:16;;;;;;;24.60;10.52;;;;;;;;;;5030564;28;20252;-88
2024/02/02 14:52:21;;;;;;;29.33;11.38;;;;;;;;;;5029990;28;20193;-90
2024/02/02 14:55:28;;;;;;;26.75;11.68;;;;;;;;;;5031594;28;20203;-89
2024/02/02 14:58:34;;;;;;;29.30;11.02;;;;;;;;;;5030415;28;20255;-87
2024/02/02 15:01:40;;;;;;;28.15;12.68;;;;;;;;;;5028733;28;20197;-89
2024/02/02 15:04:47;;;;;;;27.83;13.70;;;;;;;;;;5031354;28;20236;-90
2024/02/02 15:07:54;;;;;;;30.88;14.25;;;;;;;;;;5030356;28;20215;-89
2024/02/02 15:11:00;;;;;;;30.77;13.20;;;;;;;;;;5029429;28;20185;-91
2024/02/02 15:14:08;;;;;;;29.35;12.18;;;;;;;;;;5029519;28;20189;-89
2024/02/02 15:17:14;;;;;;;34.10;12.55;;;;;;;;;;5028851;28;20260;-91
2024/02/02 15:20:21;;;;;;;25.02;11.23;;;;;;;;;;5027846;28;20196;-91
2024/02/02 15:23:26;;;;;;;24.00;10.20;;;;;;;;;;5029127;28;20163;-90
2024/02/02 15:26:35;;;;;;;23.73;9.98;;;;;;;;;;5029284;28;20186;-90
2024/02/02 15:29:41;;;;;;;31.38;12.63;;;;;;;;;;5029639;28;20787;-90
2024/02/02 15:32:48;;;;;;;32.00;13.23;;;;;;;;;;5030434;28;20270;-90
2024/02/02 15:35:58;;;;;;;28.05;12.32;;;;;;;;;;5011066;28;20193;-88
2024/02/02 15:39:05;;;;;;;34.53;13.95;;;;;;;;;;5000626;28;20181;-89
2024/02/02 15:42:10;;;;;;;38.45;13.77;;;;;;;;;;5011575;28;20172;-92
2024/02/02 15:45:17;;;;;;;29.23;12.70;;;;;;;;;;5012791;28;20225;-89
2024/02/02 15:48:22;;;;;;;24.95;12.45;;;;;;;;;;5012321;28;20284;-89
2024/02/02 15:51:31;;;;;;;40.03;13.27;;;;;;;;;;5012423;28;20189;-89
2024/02/02 15:54:37;;;;;;;24.70;10.82;;;;;;;;;;5010628;28;20670;-86
2024/02/02 15:57:50;;;;;;;23.77;11.27;;;;;;;;;;5012109;28;20192;-90
2024/02/02 16:00:57;;;;;;;28.42;11.32;;;;;;;;;;5010262;28;20209;-90
2024/02/02 16:04:06;;;;;;;22.63;11.50;;;;;;;;;;5011524;28;20634;-90
2024/02/02 16:07:17;;;;;;;27.42;11.20;;;;;;;;;;5010970;28;20181;-90
2024/02/02 16:10:22;;;;;;;27.42;10.60;;;;;;;;;;5009267;28;20185;-88
2024/02/02 16:13:30;;;;;;;24.65;10.82;;;;;;;;;;5009128;28;20176;-89
2024/02/02 16:16:35;;;;;;;21.67;10.43;;;;;;;;;;5007953;28;20271;-90
2024/02/02 16:19:41;;;;;;;25.08;11.43;;;;;;;;;;5006366;28;20268;-89
2024/02/02 16:22:48;;;;;;;24.48;11.00;;;;;;;;;;5007031;28;20180;-89
2024/02/02 16:25:53;;;;;;;19.40;9.90;;;;;;;;;;5007697;28;20258;-89
2024/02/02 16:28:58;;;;;;;27.38;10.65;;;;;;;;;;5007863;28;20303;-88
2024/02/02 16:32:12;;;;;;;26.42;11.55;;;;;;;;;;5014290;28;20188;-90
2024/02/02 16:35:26;;;;;;;30.90;12.75;;;;;;;;;;5638729;23;20239;-90
2024/02/02 18:57:42;;;;;;;26.83;12.63;;;;;;;;;;5263227;23;20244;-90
2024/02/02 19:00:47;;;;;;;32.90;15.75;;;;;;;;;;5030506;28;20177;-89
2024/02/02 19:03:53;;;;;;;32.92;16.42;;;;;;;;;;5031945;28;20200;-88
2024/02/02 19:06:59;;;;;;;34.08;16.42;;;;;;;;;;5033421;28;20235;-90
2024/02/02 19:10:05;;;;;;;76.72;28.20;;;;;;;;;;5027100;28;20223;-88
2024/02/02 19:13:12;;;;;;;30.35;13.38;;;;;;;;;;5008978;28;20169;-88
2024/02/02 19:16:19;;;;;;;51.70;23.80;;;;;;;;;;5019852;28;20192;-89
2024/02/02 19:19:25;;;;;;;88.53;45.05;;;;;;;;;;5028212;28;20189;-90
2024/02/02 19:22:31;;;;;;;28.48;13.30;;;;;;;;;;5028227;28;20292;-92
2024/02/02 19:25:36;;;;;;;56.63;26.48;;;;;;;;;;5028430;28;20582;-91
2024/02/02 19:28:44;;;;;;;35.70;16.67;;;;;;;;;;5027448;28;20586;-89
2024/02/02 19:31:49;;;;;;;40.17;16.50;;;;;;;;;;5007775;28;20224;-89
2024/02/02 19:34:55;;;;;;;27.67;12.15;;;;;;;;;;5012394;28;20199;-90
2024/02/02 19:38:00;;;;;;;49.53;21.70;;;;;;;;;;5010886;28;20225;-90
2024/02/02 19:41:16;;;;;;;41.08;18.00;;;;;;;;;;5023310;28;20228;-89
2024/02/02 19:44:23;;;;;;;29.10;12.75;;;;;;;;;;5027892;28;20302;-89
2024/02/02 19:47:29;;;;;;;61.63;30.58;;;;;;;;;;5028813;28;20212;-90
2024/02/02 19:50:36;;;;;;;86.68;42.42;;;;;;;;;;5031280;28;20200;-90
2024/02/02 19:53:41;;;;;;;39.95;17.48;;;;;;;;;;5031760;28;20189;-90
2024/02/02 19:56:47;;;;;;;33.63;14.73;;;;;;;;;;5032977;28;20276;-90
2024/02/02 19:59:58;;;;;;;32.88;14.15;;;;;;;;;;5031020;28;20233;-91
2024/02/02 23:02:01;;;;;;;38.22;16.23;;;;;;;;;;5290303;23;20248;-90
2024/02/02 23:05:06;;;;;;;42.40;18.47;;;;;;;;;;5007385;28;21020;-91
2024/02/02 23:08:11;;;;;;;43.10;19.57;;;;;;;;;;5018574;28;20295;-89
2024/02/02 23:11:17;;;;;;;38.22;17.27;;;;;;;;;;5027282;28;20216;-91
2024/02/02 23:14:22;;;;;;;41.25;18.50;;;;;;;;;;5036938;28;20207;-90
2024/02/02 23:17:29;;;;;;;39.58;17.75;;;;;;;;;;5027149;28;20208;-90
2024/02/02 23:20:35;;;;;;;38.80;17.15;;;;;;;;;;5026417;28;20250;-90
2024/02/02 23:23:41;;;;;;;38.63;16.88;;;;;;;;;;5025315;28;20259;-91
2024/02/02 23:26:46;;;;;;;36.53;17.10;;;;;;;;;;5026279;28;20686;-90
2024/02/02 23:29:51;;;;;;;32.80;16.15;;;;;;;;;;5018196;28;20215;-90
2024/02/02 23:32:58;;;;;;;35.03;16.50;;;;;;;;;;5025933;28;20350;-90
2024/02/02 23:36:03;;;;;;;34.03;16.45;;;;;;;;;;5027252;28;20219;-89
2024/02/02 23:39:08;;;;;;;41.95;17.48;;;;;;;;;;5012394;28;20200;-90
2024/02/02 23:42:14;;;;;;;36.30;16.57;;;;;;;;;;5026145;28;20184;-88
2024/02/02 23:45:20;;;;;;;36.27;16.93;;;;;;;;;;5026533;28;20172;-89
2024/02/02 23:48:26;;;;;;;37.27;16.63;;;;;;;;;;5026074;28;20286;-90
2024/02/02 23:51:32;;;;;;;35.63;15.80;;;;;;;;;;5026621;28;20208;-91
2024/02/02 23:54:38;;;;;;;36.27;16.17;;;;;;;;;;5025624;28;20324;-91
2024/02/02 23:57:44;;;;;;;25.53;12.90;;;;;;;;;;5026747;28;20257;-90
